Mobile Site You Are Here > > > > Ty Ross 2014 Minor League Gamelogs & Splits


Photo of Ty Ross


Ty Ross

Tyler Matthew Ross

Position: Catcher
Bats: Right, Throws: Right
Height: 6' 2", Weight: 210 lb.

Born: January 17, 1992 in Naples, Florida, US
High School: Barron Collier HS (Naples , FL)
School: Louisiana State University (Baton Rouge , LA)

Drafted by the Philadelphia Phillies in the 46th round of the 2010 MLB June Amateur Draft from Barron Collier HS (Naples , FL) and the San Francisco Giants in the 12th round of the 2013 MLB June Amateur Draft from Louisiana State University (Baton Rouge , LA).

Ty Ross
/ Gamelogs & Splits
 Batting: 2015 / 2014 / 2013

2014 Player Batting Gamelog

Rk Date Lev Tm   Opp PA AB R H 2B 3B HR RBI BB IBB SO HBP SH SF GDP SB CS Pos E
1 2014-04-03 A-SALL Augusta GreenJackets Charleston RiverDogs 3 3 0 0 0 0 0 0 0 0 2 0 0 0 0 0 0 C 0
2 2014-04-04 A-SALL Augusta GreenJackets Charleston RiverDogs 4 3 0 0 0 0 0 0 1 0 1 0 0 0 0 0 0 C 0
3 2014-04-05 A-SALL Augusta GreenJackets Charleston RiverDogs 4 4 0 1 0 0 0 0 0 0 2 0 0 0 0 0 0 C 0
4 2014-04-08 A-SALL Augusta GreenJackets @ Savannah Sand Gnats 3 2 1 0 0 0 0 0 1 0 0 0 0 0 0 0 0 C 0
5 2014-04-09 A-SALL Augusta GreenJackets @ Savannah Sand Gnats 5 4 1 1 0 0 0 0 1 0 3 0 0 0 0 0 0 C 0
6 2014-04-11 A-SALL Augusta GreenJackets @ Charleston RiverDogs 4 3 0 1 0 0 0 3 0 0 0 0 0 1 0 0 0 C 0
7 2014-04-12 A-SALL Augusta GreenJackets @ Charleston RiverDogs 4 3 2 1 1 0 0 2 1 0 0 0 0 0 0 0 0 C 0
8 2014-04-13 A-SALL Augusta GreenJackets @ Charleston RiverDogs 4 3 0 1 0 0 0 0 1 0 0 0 0 0 1 0 0 C 0
9 2014-04-14 A-SALL Augusta GreenJackets Savannah Sand Gnats 3 3 0 0 0 0 0 0 0 0 1 0 0 0 0 0 0 C 0
10 2014-04-15 A-SALL Augusta GreenJackets Savannah Sand Gnats 3 3 0 2 1 0 0 0 0 0 1 0 0 0 0 0 0 C 0
11 2014-04-17 A-SALL Augusta GreenJackets @ Lexington Legends 4 4 0 0 0 0 0 0 0 0 4 0 0 0 0 0 0 C 0
12 2014-04-18 A-SALL Augusta GreenJackets @ Lexington Legends 5 4 1 1 0 0 0 0 1 0 1 0 0 0 0 0 0 C 0
13 2014-04-19 A-SALL Augusta GreenJackets @ Lexington Legends 4 4 0 1 0 0 0 0 0 0 1 0 0 0 0 0 1 C 0
14 2014-04-21 A-SALL Augusta GreenJackets Hagerstown Suns 4 2 0 0 0 0 0 1 1 0 1 0 0 1 0 0 0 C 0
15 2014-04-22 A-SALL Augusta GreenJackets Hagerstown Suns 3 3 0 1 0 0 0 0 0 0 0 0 0 0 0 0 0 C 0
16 2014-04-23 A-SALL Augusta GreenJackets Hagerstown Suns 6 5 0 2 0 0 0 0 1 0 0 0 0 0 0 0 1 C 0
17 2014-04-25 A-SALL Augusta GreenJackets Asheville Tourists 3 3 0 1 0 0 0 1 0 0 0 0 0 0 0 0 1 C 0
18 2014-04-26 A-SALL Augusta GreenJackets Asheville Tourists 4 4 0 1 0 0 0 0 0 0 0 0 0 0 0 0 0 C 0
19 2014-04-27 A-SALL Augusta GreenJackets Asheville Tourists 4 4 0 1 0 0 0 0 0 0 0 0 0 0 0 0 0 C 0
20 2014-04-29 A-SALL Augusta GreenJackets @ Charleston RiverDogs 3 3 0 0 0 0 0 0 0 0 0 0 0 0 0 0 0 C 0
21 2014-05-01 A-SALL Augusta GreenJackets @ Charleston RiverDogs 3 3 0 0 0 0 0 0 0 0 0 0 0 0 0 0 0 C 0
22 2014-05-02 A-SALL Augusta GreenJackets Greenville Drive 3 3 0 0 0 0 0 0 0 0 3 0 0 0 0 0 0 C 0
23 2014-05-03 A-SALL Augusta GreenJackets Greenville Drive 4 4 0 1 1 0 0 0 0 0 1 0 0 0 0 0 0 C 0
24 2014-05-04 A-SALL Augusta GreenJackets Greenville Drive 4 4 0 2 1 0 0 0 0 0 2 0 0 0 0 0 0 C 1
25 2014-05-05 A-SALL Augusta GreenJackets Greenville Drive 4 4 0 1 0 0 0 0 0 0 3 0 0 0 0 0 0 1B 0
26 2014-05-07 A-SALL Augusta GreenJackets @ Delmarva Shorebirds 3 1 0 0 0 0 0 0 1 0 0 1 0 0 0 0 1 C 0
27 2014-05-08 A-SALL Augusta GreenJackets @ Delmarva Shorebirds 3 3 0 1 0 0 0 0 0 0 0 0 0 0 0 0 0 C 0
28 2014-05-09 A-SALL Augusta GreenJackets @ Delmarva Shorebirds 4 3 0 1 0 0 0 0 1 0 0 0 0 0 0 0 0 C 0
29 2014-05-10 A-SALL Augusta GreenJackets @ Hickory Crawdads 3 3 0 0 0 0 0 0 0 0 2 0 0 0 0 0 0 C 0
30 2014-05-11 A-SALL Augusta GreenJackets @ Hickory Crawdads 4 4 0 0 0 0 0 0 0 0 1 0 0 0 0 0 0 C 0
31 2014-05-12 A-SALL Augusta GreenJackets @ Hickory Crawdads 4 4 0 0 0 0 0 0 0 0 1 0 0 0 0 0 0 C 0
32 2014-05-14 A-SALL Augusta GreenJackets West Virginia Power 4 4 0 1 1 0 0 1 0 0 0 0 0 0 0 0 0 C 0
33 2014-05-15 A-SALL Augusta GreenJackets West Virginia Power 3 3 0 0 0 0 0 0 0 0 2 0 0 0 0 0 0 C 0
34 2014-05-17 A-SALL Augusta GreenJackets Greensboro Grasshoppers 3 2 0 1 0 0 0 0 1 0 0 0 0 0 0 0 0 C 0
35 2014-05-18 A-SALL Augusta GreenJackets Greensboro Grasshoppers 3 3 0 0 0 0 0 0 0 0 1 0 0 0 0 0 0 C 0
36 2014-05-20 A-SALL Augusta GreenJackets Greensboro Grasshoppers 5 4 0 1 0 0 0 0 1 0 2 0 0 0 1 0 0 C 0
37 2014-05-23 A-SALL Augusta GreenJackets @ Greenville Drive 3 3 0 1 0 0 0 0 0 0 1 0 0 0 0 0 0 C 0
38 2014-05-24 A-SALL Augusta GreenJackets @ Greenville Drive 5 5 2 3 1 0 1 3 0 0 1 0 0 0 0 0 0 C 0
39 2014-05-26 A-SALL Augusta GreenJackets Savannah Sand Gnats 3 3 0 0 0 0 0 0 0 0 1 0 0 0 0 0 0 C 0
40 2014-05-29 A-SALL Augusta GreenJackets @ Lexington Legends 4 3 1 0 0 0 0 0 1 0 0 0 0 0 0 0 0 C 0
41 2014-05-31 A-SALL Augusta GreenJackets @ Lexington Legends 5 3 1 2 0 0 0 0 2 0 0 0 0 0 0 0 0 C 0
42 2014-06-02 A-SALL Augusta GreenJackets Rome Braves 4 4 0 1 0 0 0 1 0 0 2 0 0 0 0 0 0 C 0
43 2014-06-03 A-SALL Augusta GreenJackets Rome Braves 4 4 1 2 0 0 0 0 0 0 1 0 0 0 0 0 0 C 0
44 2014-06-05 A-SALL Augusta GreenJackets Lexington Legends 4 3 1 0 0 0 0 2 0 0 0 0 0 1 0 0 0 C 0
45 2014-06-07 A-SALL Augusta GreenJackets Lexington Legends 5 5 1 1 0 0 0 0 0 0 2 0 0 0 0 0 0 C 1
46 2014-06-08 A-SALL Augusta GreenJackets Lexington Legends 3 2 0 1 1 0 0 0 1 0 0 0 0 0 0 0 0 C 0
47 2014-06-10 A-SALL Augusta GreenJackets @ Rome Braves 4 4 1 1 0 0 0 0 0 0 0 0 0 0 0 0 0 C 0
48 2014-06-11 A-SALL Augusta GreenJackets @ Rome Braves 6 5 0 1 1 0 0 0 0 0 1 0 1 0 0 0 0 C 0
49 2014-06-12 (2) A-SALL Augusta GreenJackets @ Savannah Sand Gnats 3 3 0 0 0 0 0 0 0 0 1 0 0 0 0 0 0 C 1
50 2014-06-13 A-SALL Augusta GreenJackets @ Savannah Sand Gnats 5 4 1 1 0 0 0 1 1 0 1 0 0 0 1 0 0 0
51 2014-06-15 A-SALL Augusta GreenJackets @ Savannah Sand Gnats 4 3 0 0 0 0 0 0 0 0 0 0 1 0 0 0 0 C 1
52 2014-06-19 A-SALL Augusta GreenJackets Asheville Tourists 4 3 0 1 0 0 0 0 1 0 1 0 0 0 0 0 0 C 0
53 2014-06-20 A-SALL Augusta GreenJackets Asheville Tourists 4 4 1 3 1 0 0 0 0 0 0 0 0 0 0 0 1 C 0
54 2014-06-22 A-SALL Augusta GreenJackets Asheville Tourists 4 4 0 0 0 0 0 0 0 0 0 0 0 0 0 0 0 C 1
55 2014-06-23 A-SALL Augusta GreenJackets Rome Braves 4 4 1 2 0 0 0 1 0 0 0 0 0 0 0 0 0 C 0
56 2014-06-25 A-SALL Augusta GreenJackets Rome Braves 3 1 0 0 0 0 0 0 2 0 1 0 0 0 0 0 0 C 0
57 2014-06-26 A-SALL Augusta GreenJackets Rome Braves 4 4 0 0 0 0 0 0 0 0 1 0 0 0 0 0 0 C 0
58 2014-06-27 A-SALL Augusta GreenJackets @ Lexington Legends 4 3 1 1 0 0 0 0 1 0 2 0 0 0 0 0 0 C 0
59 2014-06-28 A-SALL Augusta GreenJackets @ Lexington Legends 5 4 0 1 0 0 0 0 0 0 3 1 0 0 0 0 0 0
60 2014-06-29 A-SALL Augusta GreenJackets @ Lexington Legends 4 3 0 1 1 0 0 0 1 0 1 0 0 0 0 0 0 C 0
61 2014-06-30 A-SALL Augusta GreenJackets @ Lexington Legends 4 4 0 1 0 0 0 0 0 0 0 0 0 0 1 0 0 0
62 2014-07-01 A-SALL Augusta GreenJackets @ Rome Braves 4 4 0 0 0 0 0 0 0 0 1 0 0 0 0 0 0 C 0
63 2014-07-02 A-SALL Augusta GreenJackets @ Rome Braves 4 4 0 0 0 0 0 0 0 0 0 0 0 0 0 0 0 C 0
64 2014-07-03 A-SALL Augusta GreenJackets @ Rome Braves 4 2 0 0 0 0 0 0 1 0 0 1 0 0 0 0 0 0
65 2014-07-04 A-SALL Augusta GreenJackets Greenville Drive 4 4 0 2 1 0 0 3 0 0 0 0 0 0 0 0 0 C 0
66 2014-07-05 A-SALL Augusta GreenJackets Greenville Drive 4 4 1 1 0 0 0 1 0 0 0 0 0 0 0 0 0 C 0
67 2014-07-06 A-SALL Augusta GreenJackets Greenville Drive 5 4 2 1 0 0 0 0 1 0 1 0 0 0 0 0 0 0
68 2014-07-07 A-SALL Augusta GreenJackets @ Savannah Sand Gnats 4 3 0 1 0 0 0 0 1 0 0 0 0 0 0 0 0 C 0
69 2014-07-08 A-SALL Augusta GreenJackets @ Savannah Sand Gnats 4 4 0 0 0 0 0 0 0 0 1 0 0 0 0 0 0 1B 0
70 2014-07-09 A-SALL Augusta GreenJackets @ Savannah Sand Gnats 5 5 0 3 1 0 0 1 0 0 1 0 0 0 0 0 0 C 0
71 2014-07-10 A-SALL Augusta GreenJackets @ Greenville Drive 5 5 2 2 0 0 1 3 0 0 0 0 0 0 0 0 0 C 0
72 2014-07-11 A-SALL Augusta GreenJackets @ Greenville Drive 4 3 1 1 0 0 0 2 0 0 0 0 0 1 0 0 0 0
73 2014-07-12 A-SALL Augusta GreenJackets @ Greenville Drive 4 3 0 2 1 0 0 0 1 0 0 0 0 0 0 0 0 C 0
74 2014-07-13 A-SALL Augusta GreenJackets @ Greenville Drive 5 4 0 2 1 0 0 2 0 0 1 0 0 1 0 0 0 C 0
75 2014-07-15 A-SALL Augusta GreenJackets Kannapolis Intimidators 6 5 1 2 0 0 0 0 1 0 0 0 0 0 0 0 0 0
76 2014-07-16 A-SALL Augusta GreenJackets Kannapolis Intimidators 4 4 0 1 1 0 0 1 0 0 2 0 0 0 0 0 0 C 0
77 2014-07-17 A-SALL Augusta GreenJackets Kannapolis Intimidators 4 4 0 0 0 0 0 0 0 0 1 0 0 0 0 0 0 C 0
78 2014-07-18 A-SALL Augusta GreenJackets @ Charleston RiverDogs 4 3 1 1 0 0 0 1 1 0 1 0 0 0 0 0 0 0
79 2014-07-19 A-SALL Augusta GreenJackets @ Charleston RiverDogs 5 5 1 1 1 0 0 0 0 0 1 0 0 0 0 0 0 C 0
80 2014-07-20 A-SALL Augusta GreenJackets @ Charleston RiverDogs 6 6 2 2 0 0 0 2 0 0 0 0 0 0 0 0 0 C 0
81 2014-07-21 A-SALL Augusta GreenJackets @ Charleston RiverDogs 4 4 1 1 1 0 0 1 0 0 1 0 0 0 0 0 0 0
82 2014-07-23 A-SALL Augusta GreenJackets Savannah Sand Gnats 4 3 0 0 0 0 0 0 1 0 1 0 0 0 0 0 0 C 1
83 2014-07-24 A-SALL Augusta GreenJackets Savannah Sand Gnats 4 4 0 1 0 0 0 0 0 0 0 0 0 0 0 0 0 1B 0
84 2014-07-25 A-SALL Augusta GreenJackets Savannah Sand Gnats 4 4 0 0 0 0 0 1 0 0 0 0 0 0 0 0 0 C 0
85 2014-07-26 A-SALL Augusta GreenJackets Greensboro Grasshoppers 5 3 0 0 0 0 0 0 1 0 2 0 1 0 0 0 0 C 1
86 2014-07-27 A-SALL Augusta GreenJackets Greensboro Grasshoppers 4 4 1 1 1 0 0 0 0 0 1 0 0 0 0 0 0 0
87 2014-07-28 A-SALL Augusta GreenJackets Greensboro Grasshoppers 4 3 2 2 1 0 1 3 0 0 0 1 0 0 0 0 0 C 0
88 2014-07-31 A-SALL Augusta GreenJackets @ Kannapolis Intimidators 4 4 1 2 0 0 1 2 0 0 0 0 0 0 0 0 0 C 0
89 2014-08-01 A-SALL Augusta GreenJackets @ Kannapolis Intimidators 4 3 1 2 0 0 0 0 1 0 0 0 0 0 0 0 1 C 0
90 2014-08-02 A-SALL Augusta GreenJackets @ Kannapolis Intimidators 5 5 1 2 1 0 1 2 0 0 0 0 0 0 1 0 0 0
91 2014-08-03 A-SALL Augusta GreenJackets @ Kannapolis Intimidators 4 4 1 1 0 0 0 0 0 0 0 0 0 0 0 0 0 C 0
92 2014-08-04 A-SALL Augusta GreenJackets @ Greenville Drive 4 4 0 1 0 0 0 0 0 0 1 0 0 0 0 0 0 C 0
93 2014-08-05 A-SALL Augusta GreenJackets @ Greenville Drive 5 5 0 0 0 0 0 0 0 0 0 0 0 0 0 0 0 C 0
94 2014-08-06 A-SALL Augusta GreenJackets @ Greenville Drive 4 4 1 2 0 0 0 0 0 0 0 0 0 0 1 0 0 0
95 2014-08-07 A-SALL Augusta GreenJackets Savannah Sand Gnats 5 5 1 1 0 0 0 1 0 0 2 0 0 0 0 0 0 C 1
96 2014-08-09 A-SALL Augusta GreenJackets Savannah Sand Gnats 3 3 0 0 0 0 0 0 0 0 1 0 0 0 0 0 0 C 0
97 2014-08-09 (2) A-SALL Augusta GreenJackets Savannah Sand Gnats 3 2 0 1 0 0 0 0 0 0 0 0 1 0 0 0 0 0
98 2014-08-10 A-SALL Augusta GreenJackets Savannah Sand Gnats 4 4 1 1 0 0 0 0 0 0 1 0 0 0 0 0 0 C 0
99 2014-08-11 A-SALL Augusta GreenJackets @ West Virginia Power 4 3 0 1 0 0 0 1 1 0 0 0 0 0 0 0 0 C 0
100 2014-08-13 A-SALL Augusta GreenJackets @ West Virginia Power 3 3 1 1 0 0 1 1 0 0 2 0 0 0 0 0 0 0
101 2014-08-13 (2) A-SALL Augusta GreenJackets @ West Virginia Power 3 2 0 0 0 0 0 0 1 0 0 0 0 0 1 0 0 C 0
102 2014-08-14 A-SALL Augusta GreenJackets @ Asheville Tourists 4 4 0 0 0 0 0 0 0 0 0 0 0 0 1 0 0 C 0
103 2014-08-15 A-SALL Augusta GreenJackets @ Asheville Tourists 4 3 1 1 1 0 0 0 1 0 0 0 0 0 0 0 0 C 0
104 2014-08-16 A-SALL Augusta GreenJackets @ Asheville Tourists 5 3 0 0 0 0 0 1 1 0 0 0 0 1 0 0 0 C 0
105 2014-08-19 A-SALL Augusta GreenJackets Hickory Crawdads 4 4 0 0 0 0 0 0 0 0 1 0 0 0 0 0 0 C 0
106 2014-08-20 A-SALL Augusta GreenJackets Hickory Crawdads 4 4 0 1 1 0 0 0 0 0 1 0 0 0 0 0 0 C 0
107 2014-08-21 A-SALL Augusta GreenJackets Hickory Crawdads 4 3 1 1 0 0 0 1 1 0 1 0 0 0 0 0 0 C 0
108 2014-08-22 A-SALL Augusta GreenJackets Lexington Legends 5 4 0 0 0 0 0 0 0 0 2 0 1 0 0 0 0 0
109 2014-08-23 A-SALL Augusta GreenJackets Lexington Legends 4 4 0 1 1 0 0 0 0 0 1 0 0 0 0 0 0 C 0
110 2014-08-26 A-SALL Augusta GreenJackets @ Savannah Sand Gnats 5 2 0 1 0 0 0 2 0 0 1 1 1 1 0 0 0 C 0
111 2014-08-27 A-SALL Augusta GreenJackets @ Savannah Sand Gnats 4 3 2 1 0 0 0 0 1 0 0 0 0 0 0 0 0 C 0
112 2014-08-28 A-SALL Augusta GreenJackets @ Savannah Sand Gnats 4 3 0 0 0 0 0 0 0 0 2 1 0 0 0 0 0 0
113 2014-08-29 A-SALL Augusta GreenJackets Charleston RiverDogs 4 4 0 2 1 0 0 0 0 0 0 0 0 0 1 1 0 C 0
114 2014-08-30 A-SALL Augusta GreenJackets Charleston RiverDogs 4 4 0 1 0 0 0 0 0 0 0 0 0 0 0 0 0 C 0
115 2014-08-31 A-SALL Augusta GreenJackets Charleston RiverDogs 4 4 0 1 0 0 0 0 0 0 0 0 0 0 1 0 0 0
116 2014-09-01 A-SALL Augusta GreenJackets Charleston RiverDogs 4 4 1 1 0 0 0 0 0 0 1 0 0 0 1 0 0 C 0

2014 Player Batting Splits

Split G PA AB R H 2B 3B HR RBI SB CS BB SO BA OBP SLG OPS TB GDP HBP SH SF IBB
Total 116 468 412 45 101 24 0 6 48 1 6 37 87 .245 .312 .347 .659 143 11 6 6 7 0
Last 7 days 1 4 4 1 1 0 0 0 0 0 0 0 1 .250 .250 .250 .500 1 1 0 0 0 0
Last 28 days 1 4 4 1 1 0 0 0 0 0 0 0 1 .250 .250 .250 .500 1 1 0 0 0 0
Last 90 days 21 83 70 7 15 4 0 1 6 1 0 6 14 .214 .288 .314 .602 22 5 2 3 2 0
Home 57 224 204 16 49 13 0 1 18 1 3 14 50 .240 .290 .319 .608 65 4 1 3 2 0
Away 59 244 208 29 52 11 0 5 30 0 3 23 37 .250 .332 .375 .707 78 7 5 3 5 0
vs RHP as RHB 111 340 299 69 15 0 3 38 27 64 .231 .299 .311 .610 93 7 4 5 5 0
vs LHP as RHB 58 128 113 32 9 0 3 10 10 23 .283 .346 .442 .789 50 4 2 1 2 0
April 20 77 67 5 15 2 0 0 7 0 3 8 17 .224 .299 .254 .552 17 1 0 0 2 0
May 21 77 69 4 15 4 0 1 4 0 1 7 21 .217 .299 .319 .618 22 1 1 0 0 0
June 20 82 71 8 18 4 0 0 5 0 1 7 17 .254 .325 .310 .635 22 2 1 2 1 0
July 27 118 105 16 29 9 0 3 23 0 0 8 15 .276 .333 .448 .781 47 0 2 1 2 0
August 27 110 96 11 23 5 0 2 9 1 1 7 16 .240 .299 .354 .653 34 6 2 3 2 0
September 1 4 4 1 1 0 0 0 0 0 0 0 1 .250 .250 .250 .500 1 1 0 0 0 0
2 outs, RISP 52 62 58 9 1 0 0 7 3 15 .155 .210 .172 .382 10 0 1 0 0 0
vs. Younger Pitchers 95 259 232 60 17 0 4 28 16 50 .259 .309 .384 .692 89 4 3 3 5 0
vs. Older Pitchers 85 209 180 41 7 0 2 20 21 37 .228 .316 .300 .616 54 7 3 3 2 0
Please note that splits include both major and minor league stats. We have decided that the splits across all levels is more useful than just minor league stats.

About the Minor League Data

Performance data on minor and international leagues is licensed from and provided by the SABR Minor Leagues Database, a community project sponsored by the Minor Leagues Committee of the Society for American Baseball Research.

The database is under active development. Many statistics are incomplete due to ongoing research and/or limitations in published sources. To learn more about these limitations, or to find out how to contribute, click here.

Minor league Total Zone (Rctch&Rtz, 2005-2009) data provided by Baseballprojection.com and Minorleaguesplits.com.